»·PEaware :: N224EE KFUL-KGCN

N224EE :: KFUL-KGCN

FLIGHT INFORMATION

Flight Status: Arrived
Operator: Privately registered:
United States
More flights under this callsign
Pilot: Souhail B. (40176)
Aircraft: Unknown
(P28T)
More flights by this aircraft type
Origin: KFUL Fullerton Mun
United States
Destination: KGCN Grand Canyon Natl Park
United States
More flights between these airports :: More routes between these airports
Route: VPLPD KRAL HEC GFS KIFP KIGM L37 40G
File this flight plan on PilotEdge
Remarks:
Altitude:
(Current/Filed)
9,500ft
Speed:
(Current/Filed)
160kts
Departed: 29-Jul-22 03:52 PM
Arrived: 29-Jul-22 06:10 PM
Distance/Time
Traveled:
313nm/2:17
Distance/Time
To Go:
Arrived

Flight Plot

Page will automatically refresh every two minutes.

Flight plan parsing failed; only flown route is shown


Map Options




Map Legend


Flown Route
Filed Route
Departure Airport
Arrival Airport
Navaid (VOR, NDB)
Fix

Horizontal Profiles

Position Reports

Time Latitude Longitude Heading Altitude Ground
Speed
29-Jul-22 15:38 33.871411 -117.977920 253 96ft 0kts
29-Jul-22 15:39 33.871411 -117.977920 253 96ft 0kts
29-Jul-22 15:40 33.871411 -117.977920 253 96ft 0kts
29-Jul-22 15:41 33.871411 -117.977920 253 96ft 0kts
29-Jul-22 15:42 33.871411 -117.977920 253 96ft 0kts
29-Jul-22 15:43 33.871411 -117.977920 253 96ft 0kts
29-Jul-22 15:44 33.871411 -117.977920 253 96ft 0kts
29-Jul-22 15:45 33.871411 -117.977920 253 96ft 0kts
29-Jul-22 15:46 33.871798 -117.978192 328 95ft 9kts
29-Jul-22 15:47 33.872291 -117.976235 76 101ft 14kts
29-Jul-22 15:48 33.872599 -117.974821 355 102ft 0kts
29-Jul-22 15:49 33.872599 -117.974821 355 102ft 0kts
29-Jul-22 15:50 33.872599 -117.974821 355 102ft 0kts
29-Jul-22 15:51 33.870881 -117.987394 256 311ft 92kts
29-Jul-22 15:52 33.889837 -117.988296 71 1654ft 112kts
29-Jul-22 15:53 33.891868 -117.951941 81 3094ft 114kts
29-Jul-22 15:54 33.885636 -117.911503 96 3560ft 155kts
29-Jul-22 15:55 33.881731 -117.858018 98 3338ft 164kts
29-Jul-22 15:56 33.875636 -117.805745 90 3405ft 157kts
29-Jul-22 15:57 33.870385 -117.753935 121 3434ft 157kts
29-Jul-22 15:58 33.863189 -117.711279 81 4760ft 132kts
29-Jul-22 15:59 33.870724 -117.670184 75 5878ft 129kts
29-Jul-22 16:00 33.877752 -117.628248 77 6611ft 128kts
29-Jul-22 16:01 33.887344 -117.587792 56 7245ft 130kts
29-Jul-22 16:02 33.903527 -117.549509 60 7832ft 130kts
29-Jul-22 16:03 33.919522 -117.509907 65 8320ft 132kts
29-Jul-22 16:04 33.934485 -117.469180 72 8772ft 136kts
29-Jul-22 16:05 33.950700 -117.429692 49 9284ft 132kts
29-Jul-22 16:06 33.969934 -117.391960 46 9706ft 133kts
29-Jul-22 16:07 33.998238 -117.363291 28 9740ft 150kts
29-Jul-22 16:08 34.032289 -117.331726 38 9358ft 155kts
29-Jul-22 16:09 34.064174 -117.298647 38 9478ft 149kts
29-Jul-22 16:10 34.098406 -117.269797 22 9638ft 149kts
29-Jul-22 16:11 34.138782 -117.251509 22 9526ft 157kts
29-Jul-22 16:12 34.180046 -117.235180 15 9359ft 158kts
29-Jul-22 16:13 34.218231 -117.213775 28 9520ft 150kts
29-Jul-22 16:14 34.254161 -117.187447 43 9545ft 154kts
29-Jul-22 16:15 34.283724 -117.148947 42 9528ft 154kts
29-Jul-22 16:16 34.316017 -117.114297 39 9619ft 160kts
29-Jul-22 16:17 34.349567 -117.078450 43 9523ft 162kts
29-Jul-22 16:18 34.384768 -117.044365 31 9435ft 162kts
29-Jul-22 16:19 34.422972 -117.014864 35 9329ft 163kts
29-Jul-22 16:20 34.458422 -116.982236 41 9361ft 154kts
29-Jul-22 16:21 34.491013 -116.947948 42 9403ft 156kts
29-Jul-22 16:22 34.512847 -116.903301 68 9446ft 158kts
29-Jul-22 16:23 34.529671 -116.854682 65 9508ft 156kts
29-Jul-22 16:24 34.552908 -116.810663 56 9522ft 157kts
29-Jul-22 16:25 34.576359 -116.766382 59 9546ft 159kts
29-Jul-22 16:26 34.600304 -116.720291 59 9311ft 161kts
29-Jul-22 16:27 34.622705 -116.673029 61 9180ft 156kts
29-Jul-22 16:28 34.650736 -116.634937 45 9319ft 153kts
29-Jul-22 16:29 34.684095 -116.603009 39 9517ft 155kts
29-Jul-22 16:30 34.720674 -116.574724 34 9461ft 164kts
29-Jul-22 16:31 34.753366 -116.538897 67 9360ft 156kts
29-Jul-22 16:32 34.783800 -116.500992 40 9239ft 162kts
29-Jul-22 16:33 34.811170 -116.460343 63 9233ft 156kts
29-Jul-22 16:34 34.832036 -116.415135 53 9350ft 152kts
29-Jul-22 16:35 34.856068 -116.373524 76 9592ft 145kts
29-Jul-22 16:36 34.857584 -116.319992 77 9279ft 165kts
29-Jul-22 16:38 34.869861 -116.267689 67 9148ft 160kts
29-Jul-22 16:39 34.876869 -116.216346 77 9515ft 143kts
29-Jul-22 16:40 34.883875 -116.167154 73 9795ft 145kts
29-Jul-22 16:41 34.891260 -116.113472 75 9308ft 163kts
29-Jul-22 16:42 34.905467 -116.062459 67 9217ft 158kts
29-Jul-22 16:43 34.917255 -116.010852 71 9271ft 145kts
29-Jul-22 16:44 34.924881 -115.960366 76 9284ft 151kts
29-Jul-22 16:45 34.935146 -115.911109 66 9328ft 151kts
29-Jul-22 16:46 34.946106 -115.861832 71 9524ft 150kts
29-Jul-22 16:47 34.956567 -115.812616 76 9607ft 151kts
29-Jul-22 16:48 34.964022 -115.762473 75 9741ft 149kts
29-Jul-22 16:49 34.976457 -115.714232 65 9801ft 148kts
29-Jul-22 16:50 35.001225 -115.674772 42 9835ft 146kts
29-Jul-22 16:51 35.023205 -115.633578 83 9751ft 156kts
29-Jul-22 16:52 35.027293 -115.580180 76 9660ft 158kts
29-Jul-22 16:53 35.033418 -115.526780 77 9569ft 159kts
29-Jul-22 16:54 35.038938 -115.472920 83 9528ft 160kts
29-Jul-22 16:55 35.045457 -115.419424 71 9529ft 158kts
29-Jul-22 16:56 35.055405 -115.366606 69 9471ft 155kts
29-Jul-22 16:57 35.069129 -115.318354 66 9793ft 150kts
29-Jul-22 16:58 35.081398 -115.269737 72 9910ft 151kts
29-Jul-22 16:59 35.087374 -115.217604 81 9805ft 159kts
29-Jul-22 17:00 35.091535 -115.163749 84 9640ft 159kts
29-Jul-22 17:01 35.094463 -115.109761 82 9542ft 158kts
29-Jul-22 17:02 35.094321 -115.055807 94 9512ft 160kts
29-Jul-22 17:03 35.093789 -115.001928 86 9404ft 158kts
29-Jul-22 17:04 35.096297 -114.948049 83 9302ft 159kts
29-Jul-22 17:05 35.104683 -114.895484 78 9164ft 158kts
29-Jul-22 17:06 35.112023 -114.842908 79 9208ft 151kts
29-Jul-22 17:06 35.118393 -114.801449 77 9441ft 146kts
29-Jul-22 17:07 35.126501 -114.751522 78 9556ft 152kts
29-Jul-22 17:09 35.135225 -114.692448 77 9715ft 154kts
29-Jul-22 17:10 35.143925 -114.639083 77 9532ft 158kts
29-Jul-22 17:10 35.151027 -114.595318 77 9535ft 158kts
29-Jul-22 17:11 35.159433 -114.543045 77 9476ft 156kts
29-Jul-22 17:12 35.167824 -114.491071 78 9471ft 155kts
29-Jul-22 17:14 35.177666 -114.430705 77 9483ft 155kts
29-Jul-22 17:15 35.186232 -114.378979 78 9494ft 156kts
29-Jul-22 17:15 35.193469 -114.335706 77 9533ft 157kts
29-Jul-22 17:16 35.202691 -114.283836 74 9568ft 155kts
29-Jul-22 17:17 35.212953 -114.231323 78 9424ft 156kts
29-Jul-22 17:19 35.227729 -114.172023 64 9441ft 156kts
29-Jul-22 17:19 35.238084 -114.129433 78 9445ft 157kts
29-Jul-22 17:20 35.249463 -114.077732 79 9505ft 156kts
29-Jul-22 17:21 35.250473 -114.024137 88 9525ft 159kts
29-Jul-22 17:22 35.254848 -113.970744 86 9556ft 157kts
29-Jul-22 17:23 35.254050 -113.916947 96 9493ft 160kts
29-Jul-22 17:24 35.248347 -113.863842 97 9500ft 159kts
29-Jul-22 17:25 35.246834 -113.808960 88 9413ft 161kts
29-Jul-22 17:26 35.250723 -113.754626 85 9406ft 160kts
29-Jul-22 17:27 35.255087 -113.700977 72 9409ft 160kts
29-Jul-22 17:28 35.266992 -113.648643 69 9441ft 160kts
29-Jul-22 17:29 35.276511 -113.595647 83 9435ft 159kts
29-Jul-22 17:30 35.281850 -113.541640 87 9450ft 159kts
29-Jul-22 17:31 35.284927 -113.487123 88 9437ft 161kts
29-Jul-22 17:32 35.287016 -113.432600 90 9466ft 161kts
29-Jul-22 17:33 35.291248 -113.378248 80 9464ft 159kts
29-Jul-22 17:34 35.297270 -113.323971 84 9485ft 161kts
29-Jul-22 17:35 35.302081 -113.269645 87 9521ft 161kts
29-Jul-22 17:36 35.305896 -113.214865 84 9527ft 161kts
29-Jul-22 17:37 35.311448 -113.160487 84 9541ft 161kts
29-Jul-22 17:38 35.317251 -113.106198 74 9523ft 163kts
29-Jul-22 17:39 35.323496 -113.051940 90 9576ft 161kts
29-Jul-22 17:40 35.324996 -112.996845 84 9661ft 162kts
29-Jul-22 17:41 35.321951 -112.941486 82 9441ft 168kts
29-Jul-22 17:42 35.327576 -112.887601 79 9122ft 160kts
29-Jul-22 17:43 35.351407 -112.842280 58 8729ft 158kts
29-Jul-22 17:44 35.363490 -112.792913 90 8395ft 155kts
29-Jul-22 17:45 35.370141 -112.739967 79 8134ft 152kts
29-Jul-22 17:46 35.392749 -112.697047 54 7870ft 157kts
29-Jul-22 17:47 35.416083 -112.653098 66 7895ft 155kts
29-Jul-22 17:48 35.434664 -112.605358 65 8023ft 155kts
29-Jul-22 17:49 35.452105 -112.556859 70 8031ft 153kts
29-Jul-22 17:50 35.472276 -112.510316 62 7997ft 155kts
29-Jul-22 17:51 35.497383 -112.467464 60 8003ft 154kts
29-Jul-22 17:52 35.519687 -112.422287 56 7996ft 155kts
29-Jul-22 17:53 35.542711 -112.377528 64 8005ft 154kts
29-Jul-22 17:54 35.560404 -112.329531 59 8014ft 157kts
29-Jul-22 17:55 35.581223 -112.283488 74 8031ft 154kts
29-Jul-22 17:56 35.603208 -112.238040 58 7965ft 156kts
29-Jul-22 17:57 35.625419 -112.192572 57 7954ft 154kts
29-Jul-22 17:58 35.648380 -112.150186 33 7733ft 154kts
29-Jul-22 17:59 35.691446 -112.145443 3 7603ft 151kts
29-Jul-22 18:00 35.732527 -112.144979 1 7653ft 150kts
29-Jul-22 18:01 35.774166 -112.142139 7 7664ft 149kts
29-Jul-22 18:02 35.815357 -112.136594 10 7645ft 151kts
29-Jul-22 18:03 35.856064 -112.132993 5 7782ft 146kts
29-Jul-22 18:04 35.896773 -112.128566 9 7991ft 146kts
29-Jul-22 18:05 35.934521 -112.112254 41 8017ft 142kts
29-Jul-22 18:06 35.962860 -112.086220 333 7840ft 112kts
29-Jul-22 18:07 35.978577 -112.117204 252 7291ft 105kts
29-Jul-22 18:08 35.960209 -112.138770 218 6604ft 63kts
29-Jul-22 18:09 35.956506 -112.141459 118 6597ft 0kts
29-Jul-22 18:10 35.956453 -112.141294 103 6594ft 8kts
29-Jul-22 18:11 35.956371 -112.139919 134 6597ft 0kts
29-Jul-22 18:12 35.956371 -112.139919 134 6597ft 0kts
29-Jul-22 18:13 35.956371 -112.139919 134 6597ft 0kts
29-Jul-22 18:14 35.956371 -112.139919 134 6597ft 0kts
29-Jul-22 18:15 35.956371 -112.139919 134 6597ft 0kts
29-Jul-22 18:16 35.956371 -112.139919 134 6597ft 0kts
29-Jul-22 18:17 35.956371 -112.139919 134 6597ft 0kts

Navigation Log

Ident Type
Flight plan parsing failed, navigation log unavailable